Time;durP1;ratioP1;P1;durP2;ratioP2;P2;SDS_P1;SDS_P2;PMS_P1;PMS_P2;Temp;Humidity;BMP_temperature;BMP_pressure;BME280_temperature;BME280_humidity;BME280_pressure;Samples;Min_cycle;Max_cycle;Signal;HPM_P1;HPM_P2
2023/07/08 00:00:19;;;;;;;1.35;0.88;;;25.60;62.00;;;;;;6364487;27;20038;-60
2023/07/08 00:03:26;;;;;;;1.40;1.20;;;25.30;61.80;;;;;;6331906;27;20033;-60
2023/07/08 00:06:31;;;;;;;1.67;1.10;;;25.40;62.30;;;;;;6364563;27;20038;-59
2023/07/08 00:09:32;;;;;;;0.95;0.75;;;25.50;61.40;;;;;;6363125;27;20065;-60
2023/07/08 00:12:37;;;;;;;1.60;1.20;;;25.30;62.40;;;;;;6366189;27;20101;-60
2023/07/08 00:15:40;;;;;;;1.50;1.25;;;25.50;61.60;;;;;;6363524;27;20639;-60
2023/07/08 00:18:43;;;;;;;1.60;1.20;;;25.20;62.00;;;;;;6363955;27;20043;-60
2023/07/08 00:21:45;;;;;;;1.15;0.90;;;25.50;62.20;;;;;;6365279;27;20039;-60
2023/07/08 00:24:46;;;;;;;1.50;1.10;;;25.50;61.80;;;;;;6366863;27;20067;-60
2023/07/08 00:27:48;;;;;;;2.25;1.30;;;25.10;61.90;;;;;;6364071;27;20050;-60
2023/07/08 00:30:50;;;;;;;1.60;1.02;;;25.50;61.70;;;;;;6363712;27;20034;-59
2023/07/08 00:33:55;;;;;;;1.67;1.20;;;25.50;61.60;;;;;;6364163;27;20037;-60
2023/07/08 00:36:56;;;;;;;1.90;1.27;;;25.40;61.80;;;;;;6361525;27;20041;-60
2023/07/08 00:39:58;;;;;;;1.60;1.20;;;25.50;62.00;;;;;;6363498;27;20528;-59
2023/07/08 00:43:04;;;;;;;1.77;1.02;;;25.50;61.70;;;;;;6363251;27;20783;-60
2023/07/08 00:46:23;;;;;;;1.05;0.95;;;25.40;61.40;;;;;;6365681;27;20030;-59
2023/07/08 00:49:34;;;;;;;1.55;1.13;;;25.50;61.50;;;;;;6363458;27;20084;-59
2023/07/08 00:52:35;;;;;;;1.13;1.02;;;25.40;61.40;;;;;;6347999;27;20035;-60
2023/07/08 00:55:37;;;;;;;1.75;1.27;;;25.40;61.40;;;;;;6363721;27;20038;-60
2023/07/08 00:58:45;;;;;;;1.65;1.13;;;25.50;61.60;;;;;;6364414;27;20163;-60
2023/07/08 01:01:48;;;;;;;1.13;1.00;;;25.50;61.60;;;;;;6370850;27;20056;-60
2023/07/08 01:04:55;;;;;;;1.40;1.00;;;25.50;61.50;;;;;;6347833;27;20140;-60
2023/07/08 01:08:02;;;;;;;1.58;1.00;;;25.50;61.50;;;;;;6367643;27;20042;-60
2023/07/08 01:11:07;;;;;;;1.45;1.27;;;24.20;60.70;;;;;;6368242;27;20468;-60
2023/07/08 01:14:16;;;;;;;1.50;1.20;;;25.40;61.70;;;;;;6367253;27;20030;-59
2023/07/08 01:17:18;;;;;;;2.22;1.58;;;25.50;61.50;;;;;;6350817;27;20031;-59
2023/07/08 01:20:22;;;;;;;1.30;0.95;;;25.30;61.90;;;;;;6370192;27;20041;-60
2023/07/08 01:23:25;;;;;;;1.73;1.10;;;25.50;61.90;;;;;;6368925;27;20067;-59
2023/07/08 01:26:27;;;;;;;1.67;1.25;;;25.40;61.50;;;;;;6369361;27;20031;-59
2023/07/08 01:29:30;;;;;;;1.90;1.42;;;25.40;61.50;;;;;;6368471;27;20070;-60
2023/07/08 01:32:33;;;;;;;1.50;1.10;;;25.20;61.50;;;;;;6349072;27;20112;-60
2023/07/08 01:35:36;;;;;;;1.67;1.45;;;25.30;61.50;;;;;;6344620;27;20034;-60
2023/07/08 01:38:39;;;;;;;2.08;1.20;;;25.50;61.70;;;;;;6359196;27;20042;-60
2023/07/08 01:41:41;;;;;;;1.58;1.30;;;25.50;61.60;;;;;;6346693;27;20121;-60
2023/07/08 01:44:42;;;;;;;1.35;0.95;;;25.50;61.70;;;;;;6363372;27;20151;-59
2023/07/08 01:47:48;;;;;;;1.33;1.17;;;25.40;61.60;;;;;;6364978;27;20042;-60
2023/07/08 01:50:55;;;;;;;1.35;1.20;;;25.50;61.60;;;;;;6348827;27;20070;-59
2023/07/08 01:54:00;;;;;;;1.50;1.10;;;25.50;61.70;;;;;;6366850;27;20027;-59
2023/07/08 01:57:02;;;;;;;1.17;1.08;;;25.40;61.60;;;;;;6363912;27;20118;-60
2023/07/08 02:00:05;;;;;;;1.85;1.17;;;25.40;61.60;;;;;;6366070;27;20039;-59
2023/07/08 02:03:14;;;;;;;1.90;0.80;;;25.50;62.10;;;;;;6364647;27;20667;-59
2023/07/08 02:06:16;;;;;;;1.10;1.00;;;25.30;61.60;;;;;;6347502;27;20280;-59
2023/07/08 02:09:18;;;;;;;1.42;1.10;;;25.40;61.60;;;;;;6367006;27;20547;-60
2023/07/08 02:12:20;;;;;;;1.02;0.70;;;25.50;62.20;;;;;;6365693;27;20034;-59
2023/07/08 02:15:21;;;;;;;1.60;1.00;;;25.10;61.50;;;;;;6365092;27;20042;-59
2023/07/08 02:18:24;;;;;;;1.30;0.90;;;25.30;61.80;;;;;;6365534;27;20038;-59
2023/07/08 02:21:26;;;;;;;2.08;0.98;;;25.40;61.70;;;;;;6363583;27;20042;-60
2023/07/08 02:24:28;;;;;;;1.30;0.98;;;25.50;61.80;;;;;;6367632;27;20035;-59
2023/07/08 02:27:29;;;;;;;1.13;0.93;;;25.30;61.70;;;;;;6366386;27;20098;-59
2023/07/08 02:30:33;;;;;;;1.52;0.88;;;25.40;61.80;;;;;;6368874;27;20034;-59
2023/07/08 02:33:34;;;;;;;1.40;1.13;;;25.40;61.80;;;;;;6367868;27;20493;-59
2023/07/08 02:36:36;;;;;;;1.30;0.80;;;25.30;62.20;;;;;;6364056;27;20506;-59
2023/07/08 02:39:38;;;;;;;0.93;0.80;;;25.40;61.90;;;;;;6367669;27;20327;-59
2023/07/08 02:42:40;;;;;;;1.48;1.00;;;25.40;62.10;;;;;;6364027;27;20027;-60
2023/07/08 02:45:41;;;;;;;1.02;0.93;;;24.90;61.60;;;;;;6366178;27;20452;-59
2023/07/08 02:48:43;;;;;;;0.90;0.70;;;25.10;61.70;;;;;;6363910;27;20047;-59
2023/07/08 02:51:46;;;;;;;1.05;0.80;;;25.40;62.00;;;;;;6365811;27;20490;-59
2023/07/08 02:54:48;;;;;;;1.27;0.90;;;25.30;61.90;;;;;;6365770;27;20047;-59
2023/07/08 02:57:50;;;;;;;0.90;0.75;;;25.30;61.90;;;;;;6367907;27;20042;-59
2023/07/08 03:00:55;;;;;;;1.13;0.80;;;25.30;62.00;;;;;;6366979;27;20050;-59
2023/07/08 03:04:00;;;;;;;1.02;0.70;;;25.40;62.00;;;;;;6365586;27;20042;-59
2023/07/08 03:07:02;;;;;;;1.25;0.90;;;25.30;62.30;;;;;;6366222;27;20035;-59
2023/07/08 03:10:04;;;;;;;1.20;0.80;;;25.20;62.00;;;;;;6362286;27;20428;-59
2023/07/08 03:13:06;;;;;;;0.65;0.65;;;25.40;62.20;;;;;;6366020;27;20111;-59
2023/07/08 03:16:12;;;;;;;0.90;0.80;;;25.10;61.90;;;;;;6362717;27;20247;-59
2023/07/08 03:19:15;;;;;;;0.88;0.80;;;25.00;61.80;;;;;;6367835;27;20508;-59
2023/07/08 03:22:16;;;;;;;0.77;0.70;;;25.30;62.00;;;;;;6363264;27;20034;-59
2023/07/08 03:25:19;;;;;;;0.82;0.68;;;25.30;61.90;;;;;;6364752;27;20087;-60
2023/07/08 03:28:22;;;;;;;0.90;0.65;;;25.20;61.90;;;;;;6364707;27;20046;-59
2023/07/08 03:31:25;;;;;;;0.68;0.60;;;25.50;62.20;;;;;;6366677;27;20847;-59
2023/07/08 03:34:29;;;;;;;0.75;0.60;;;24.90;61.70;;;;;;6364348;27;20034;-60
2023/07/08 03:37:30;;;;;;;1.13;0.80;;;25.40;62.20;;;;;;6365005;27;20061;-59
2023/07/08 03:40:33;;;;;;;1.20;0.80;;;25.40;62.50;;;;;;6364901;27;20035;-59
2023/07/08 03:43:34;;;;;;;1.05;0.85;;;25.30;62.00;;;;;;6364619;27;20045;-59
2023/07/08 03:46:36;;;;;;;0.95;0.60;;;25.30;62.40;;;;;;6364867;27;20504;-59
2023/07/08 03:49:39;;;;;;;1.10;0.70;;;25.30;62.10;;;;;;6366074;27;20054;-59
2023/07/08 03:52:41;;;;;;;1.40;0.90;;;25.30;62.10;;;;;;6362172;27;20573;-59
2023/07/08 03:55:44;;;;;;;0.75;0.65;;;24.90;61.80;;;;;;6364491;27;20039;-59
2023/07/08 03:58:45;;;;;;;1.42;0.80;;;25.30;62.10;;;;;;6364994;27;20434;-59
2023/07/08 04:01:48;;;;;;;0.90;0.68;;;25.20;62.40;;;;;;6363734;27;20084;-59
2023/07/08 04:04:50;;;;;;;0.75;0.60;;;25.10;62.40;;;;;;6365181;27;20114;-59
2023/07/08 04:07:53;;;;;;;1.00;0.90;;;25.10;62.00;;;;;;6364808;27;20458;-59
2023/07/08 04:10:55;;;;;;;0.90;0.70;;;25.20;62.40;;;;;;6364522;27;20050;-59
2023/07/08 04:14:00;;;;;;;1.13;0.80;;;25.10;62.00;;;;;;6362410;27;20409;-59
2023/07/08 04:17:01;;;;;;;0.82;0.75;;;25.00;62.10;;;;;;6362258;27;20575;-59
2023/07/08 04:20:03;;;;;;;1.05;0.80;;;25.30;62.40;;;;;;6385960;27;20091;-56
2023/07/08 04:23:05;;;;;;;1.73;0.70;;;25.30;62.20;;;;;;6388348;27;20045;-56
2023/07/08 04:26:09;;;;;;;1.08;0.70;;;25.30;62.20;;;;;;6388785;27;20553;-54
2023/07/08 04:29:14;;;;;;;0.90;0.80;;;25.40;62.40;;;;;;6387724;27;20042;-55
2023/07/08 04:32:16;;;;;;;0.75;0.73;;;25.10;62.00;;;;;;6387493;27;20046;-55
2023/07/08 04:35:18;;;;;;;1.20;0.80;;;25.30;62.60;;;;;;6397558;27;20038;-54
2023/07/08 04:38:22;;;;;;;0.88;0.68;;;25.30;62.20;;;;;;6391209;27;20435;-56
2023/07/08 04:41:25;;;;;;;1.75;1.02;;;25.30;62.20;;;;;;6371605;27;20072;-54
2023/07/08 04:44:27;;;;;;;0.98;0.60;;;25.30;62.20;;;;;;6392956;27;20046;-56
2023/07/08 04:47:29;;;;;;;0.70;0.65;;;25.30;62.60;;;;;;6390529;27;20042;-54
2023/07/08 04:50:31;;;;;;;0.88;0.68;;;25.30;62.40;;;;;;6391027;27;20408;-55
2023/07/08 04:53:32;;;;;;;1.13;0.80;;;25.10;62.50;;;;;;6391826;27;20030;-56
2023/07/08 04:56:38;;;;;;;1.10;0.80;;;25.30;62.40;;;;;;6391312;27;20046;-56
2023/07/08 04:59:39;;;;;;;1.00;0.77;;;25.40;62.90;;;;;;6391537;27;20043;-55
2023/07/08 05:02:41;;;;;;;1.02;0.90;;;25.30;62.50;;;;;;6384948;27;20030;-56
2023/07/08 05:05:42;;;;;;;0.98;0.75;;;25.20;62.80;;;;;;6378361;27;20033;-56
2023/07/08 05:08:45;;;;;;;0.93;0.80;;;25.20;62.60;;;;;;6361571;27;20087;-55
2023/07/08 05:11:47;;;;;;;1.35;0.80;;;25.10;62.80;;;;;;6383369;27;20095;-54
2023/07/08 05:14:48;;;;;;;0.70;0.70;;;25.20;62.80;;;;;;6383259;27;20035;-56
2023/07/08 05:17:51;;;;;;;1.10;1.00;;;25.20;62.80;;;;;;6383477;27;20038;-56
2023/07/08 05:20:54;;;;;;;0.68;0.60;;;25.30;63.00;;;;;;6365003;27;20110;-55
2023/07/08 05:23:56;;;;;;;1.10;0.90;;;25.30;63.10;;;;;;6382216;27;20054;-55
2023/07/08 05:26:59;;;;;;;1.15;0.80;;;25.30;62.90;;;;;;6384003;27;20497;-55
2023/07/08 05:30:01;;;;;;;1.27;0.93;;;25.10;63.00;;;;;;6383117;27;20043;-54
2023/07/08 05:33:02;;;;;;;1.60;1.00;;;25.20;62.90;;;;;;6383471;27;20437;-55
2023/07/08 05:36:04;;;;;;;1.25;0.98;;;25.20;64.10;;;;;;6383845;27;20035;-56
2023/07/08 05:39:05;;;;;;;1.10;1.00;;;25.20;62.90;;;;;;6383181;27;20035;-56
2023/07/08 05:42:11;;;;;;;1.20;0.63;;;25.30;63.40;;;;;;6382935;27;20057;-56
2023/07/08 05:45:12;;;;;;;1.27;0.90;;;24.90;62.70;;;;;;6377872;27;20043;-55
2023/07/08 05:48:17;;;;;;;0.95;0.85;;;25.10;63.00;;;;;;6381060;27;20057;-54
2023/07/08 05:51:18;;;;;;;1.02;0.90;;;24.90;62.80;;;;;;6383639;27;20035;-55
2023/07/08 05:54:23;;;;;;;1.10;0.70;;;25.30;63.10;;;;;;6381728;27;20039;-54
2023/07/08 05:57:29;;;;;;;1.27;0.98;;;25.30;63.50;;;;;;6384585;27;20043;-54
2023/07/08 06:00:30;;;;;;;1.20;1.10;;;24.90;63.00;;;;;;6389687;27;20050;-54
2023/07/08 06:03:40;;;;;;;0.88;0.82;;;25.10;62.90;;;;;;6387318;27;20048;-55
2023/07/08 06:06:44;;;;;;;1.23;0.80;;;25.30;63.10;;;;;;6390309;27;20249;-56
2023/07/08 06:09:45;;;;;;;1.02;0.90;;;25.30;63.00;;;;;;6396166;27;20041;-56
2023/07/08 06:12:47;;;;;;;1.52;1.10;;;25.30;63.20;;;;;;6390022;27;20054;-54
2023/07/08 06:15:49;;;;;;;1.23;1.10;;;25.00;62.70;;;;;;6390000;27;20038;-55
2023/07/08 06:18:55;;;;;;;1.83;1.00;;;25.20;62.80;;;;;;6390069;27;20037;-55
2023/07/08 06:21:56;;;;;;;1.02;0.70;;;25.30;63.20;;;;;;6388523;27;20046;-56
2023/07/08 06:25:18;;;;;;;1.40;0.90;;;25.30;62.90;;;;;;6366959;27;20125;-55
2023/07/08 06:28:21;;;;;;;1.10;0.88;;;25.30;62.80;;;;;;6364135;27;20038;-53
2023/07/08 06:31:22;;;;;;;1.02;0.90;;;24.10;62.10;;;;;;6363379;27;20046;-55
2023/07/08 06:34:24;;;;;;;1.00;0.82;;;25.30;63.10;;;;;;6363368;27;20134;-57
2023/07/08 06:37:28;;;;;;;1.98;1.02;;;25.20;62.70;;;;;;6362894;27;20060;-56
2023/07/08 06:40:33;;;;;;;1.10;1.00;;;25.20;62.80;;;;;;6361789;27;20095;-57
2023/07/08 06:43:42;;;;;;;1.27;0.93;;;24.50;61.70;;;;;;6360694;27;20038;-57
2023/07/08 06:46:51;;;;;;;0.95;0.80;;;25.20;62.70;;;;;;6360703;27;20409;-55
2023/07/08 06:49:52;;;;;;;0.98;0.75;;;25.30;62.90;;;;;;6362144;27;20073;-56
2023/07/08 06:52:54;;;;;;;1.00;0.90;;;25.10;62.80;;;;;;6363194;27;20034;-57
2023/07/08 06:55:56;;;;;;;0.90;0.80;;;25.30;63.30;;;;;;6363079;27;20035;-55
2023/07/08 06:58:58;;;;;;;0.68;0.68;;;25.30;62.90;;;;;;6362832;27;20065;-57
2023/07/08 07:01:59;;;;;;;1.00;0.85;;;25.30;63.00;;;;;;6365586;27;20030;-56
2023/07/08 07:05:01;;;;;;;1.48;0.98;;;24.90;63.00;;;;;;6364502;27;20414;-54
2023/07/08 07:08:04;;;;;;;1.05;0.80;;;25.20;62.90;;;;;;6364738;27;20115;-57
2023/07/08 07:11:08;;;;;;;1.10;1.00;;;25.20;62.90;;;;;;6363421;27;20489;-57
2023/07/08 07:14:10;;;;;;;0.90;0.80;;;25.50;63.50;;;;;;6361776;27;20045;-56
2023/07/08 07:17:16;;;;;;;1.17;0.90;;;25.40;63.10;;;;;;6362763;27;20041;-54
2023/07/08 07:20:18;;;;;;;1.00;0.90;;;25.10;62.80;;;;;;6363871;27;20043;-56
2023/07/08 07:23:22;;;;;;;0.75;0.73;;;25.20;62.80;;;;;;6363366;27;20052;-55
2023/07/08 07:26:26;;;;;;;0.60;0.60;;;25.30;62.90;;;;;;6363165;27;20381;-56
2023/07/08 07:29:40;;;;;;;1.00;0.70;;;25.50;63.50;;;;;;6363719;27;20043;-56
2023/07/08 07:32:43;;;;;;;1.33;0.70;;;25.20;62.90;;;;;;6345819;27;20038;-57
2023/07/08 07:35:45;;;;;;;0.80;0.70;;;25.40;63.30;;;;;;6344600;27;20038;-57
2023/07/08 07:38:46;;;;;;;1.58;0.70;;;25.30;63.30;;;;;;6345373;27;20492;-57
2023/07/08 07:41:48;;;;;;;0.85;0.70;;;25.30;63.10;;;;;;6362988;27;20069;-56
2023/07/08 07:44:50;;;;;;;0.60;0.60;;;25.40;63.10;;;;;;6364345;27;20931;-55
2023/07/08 07:47:51;;;;;;;0.80;0.70;;;25.00;63.10;;;;;;6362114;27;20043;-57
2023/07/08 07:50:53;;;;;;;1.20;0.70;;;25.30;63.30;;;;;;6362865;27;20068;-57
2023/07/08 07:53:55;;;;;;;1.02;0.93;;;25.30;63.10;;;;;;6361617;27;20194;-57
2023/07/08 07:56:56;;;;;;;0.90;0.90;;;25.40;63.60;;;;;;6361182;27;20035;-57
2023/07/08 07:59:58;;;;;;;0.90;0.80;;;25.20;63.40;;;;;;6364117;27;20038;-56
2023/07/08 08:03:00;;;;;;;1.42;1.10;;;25.50;63.30;;;;;;6362492;27;20034;-57
2023/07/08 08:06:02;;;;;;;1.00;0.90;;;25.30;63.40;;;;;;6361226;27;20038;-53
2023/07/08 08:09:04;;;;;;;1.27;1.05;;;25.40;63.40;;;;;;6361219;27;20035;-57
2023/07/08 08:12:08;;;;;;;1.00;0.80;;;25.30;63.60;;;;;;6343791;27;20542;-56
2023/07/08 08:15:13;;;;;;;0.85;0.73;;;25.30;63.60;;;;;;6325016;27;20049;-54
2023/07/08 08:18:15;;;;;;;0.90;0.80;;;25.30;63.60;;;;;;6361318;27;20077;-55
2023/07/08 08:21:19;;;;;;;0.98;0.88;;;25.50;63.90;;;;;;6335539;28;20239;-57
2023/07/08 08:24:20;;;;;;;1.05;0.85;;;25.30;63.70;;;;;;6336751;28;20031;-55
2023/07/08 08:27:23;;;;;;;1.30;1.02;;;25.40;63.50;;;;;;6332877;28;20042;-55
2023/07/08 08:30:25;;;;;;;1.05;0.68;;;25.10;63.30;;;;;;6338613;28;20047;-56
2023/07/08 08:33:27;;;;;;;0.80;0.73;;;25.50;63.60;;;;;;6339338;28;20641;-55
2023/07/08 08:36:28;;;;;;;1.02;0.70;;;25.40;63.60;;;;;;6338375;28;20070;-57
2023/07/08 08:39:30;;;;;;;0.65;0.60;;;25.50;64.10;;;;;;6337152;28;20035;-57
2023/07/08 08:42:39;;;;;;;1.15;0.90;;;25.50;63.60;;;;;;6338642;28;20416;-57
2023/07/08 08:45:50;;;;;;;0.90;0.70;;;25.30;64.00;;;;;;6334520;28;20046;-58
2023/07/08 08:48:53;;;;;;;;;;;25.50;63.60;;;;;;6335681;28;20043;-55
2023/07/08 08:51:58;;;;;;;0.80;0.63;;;25.40;64.10;;;;;;6316355;28;19923;-58
2023/07/08 08:55:07;;;;;;;0.70;0.60;;;25.40;63.40;;;;;;6334756;28;20532;-57
2023/07/08 08:58:23;;;;;;;0.95;0.85;;;24.90;63.50;;;;;;6335326;27;20227;-57
2023/07/08 09:01:25;;;;;;;0.93;0.77;;;25.20;63.40;;;;;;6334609;28;20035;-57
2023/07/08 09:04:31;;;;;;;1.20;0.90;;;25.50;64.00;;;;;;6334477;28;20035;-55
2023/07/08 09:07:59;;;;;;;0.98;0.70;;;25.40;63.90;;;;;;6316794;28;20040;-57
2023/07/08 09:11:13;;;;;;;0.50;0.40;;;25.40;63.90;;;;;;6318127;28;20500;-58
2023/07/08 09:14:23;;;;;;;0.77;0.60;;;25.50;63.60;;;;;;6334067;28;20066;-57
2023/07/08 09:17:31;;;;;;;0.57;0.50;;;25.40;63.50;;;;;;6315690;28;20611;-57
2023/07/08 09:20:36;;;;;;;0.57;0.50;;;25.30;63.50;;;;;;6334841;27;20039;-57
2023/07/08 09:23:38;;;;;;;0.70;0.65;;;25.30;63.40;;;;;;6338463;28;20036;-58
2023/07/08 09:26:41;;;;;;;0.80;0.60;;;25.60;63.50;;;;;;6339813;28;20054;-55
2023/07/08 09:29:43;;;;;;;0.68;0.57;;;25.80;64.60;;;;;;6337090;28;20035;-52
2023/07/08 09:32:46;;;;;;;0.65;0.60;;;25.50;63.80;;;;;;6320079;28;20121;-56
2023/07/08 09:35:49;;;;;;;0.82;0.60;;;24.40;62.80;;;;;;6319023;28;20046;-56
2023/07/08 09:38:51;;;;;;;0.68;0.60;;;25.30;63.20;;;;;;6337773;28;20042;-55
2023/07/08 09:41:53;;;;;;;0.60;0.60;;;25.60;63.50;;;;;;6337870;28;20033;-55
2023/07/08 09:44:57;;;;;;;1.08;0.63;;;25.50;63.40;;;;;;6339771;28;20042;-57
2023/07/08 09:48:02;;;;;;;0.50;0.45;;;25.20;63.00;;;;;;6321411;28;20048;-56
2023/07/08 09:51:04;;;;;;;0.77;0.75;;;25.30;63.10;;;;;;6323230;28;20035;-57
2023/07/08 09:54:07;;;;;;;0.80;0.70;;;25.10;63.20;;;;;;6319446;28;20035;-54
2023/07/08 09:57:24;;;;;;;0.50;0.50;;;25.70;63.20;;;;;;6337918;27;20058;-57
2023/07/08 10:00:29;;;;;;;0.40;0.40;;;25.90;63.30;;;;;;6337543;28;20035;-54
2023/07/08 10:03:34;;;;;;;0.60;0.55;;;25.50;63.00;;;;;;6321001;28;20437;-57
2023/07/08 10:06:38;;;;;;;0.60;0.50;;;25.40;62.90;;;;;;6341374;28;20035;-57
2023/07/08 10:09:41;;;;;;;0.77;0.47;;;25.50;63.20;;;;;;6339575;28;20031;-56
2023/07/08 10:12:52;;;;;;;0.80;0.60;;;25.60;63.00;;;;;;6341486;28;20043;-56
2023/07/08 10:15:57;;;;;;;0.80;0.55;;;25.60;63.20;;;;;;6301723;28;20043;-57
2023/07/08 10:19:00;;;;;;;0.82;0.50;;;25.60;63.10;;;;;;6339189;28;20088;-55
2023/07/08 10:22:15;;;;;;;0.70;0.60;;;25.70;63.20;;;;;;6337908;28;20070;-57
2023/07/08 10:25:29;;;;;;;0.43;0.30;;;25.70;63.10;;;;;;6339431;28;20039;-56
2023/07/08 10:28:38;;;;;;;0.47;0.40;;;25.70;62.70;;;;;;6337066;28;20065;-56
2023/07/08 10:31:48;;;;;;;0.70;0.60;;;25.30;62.80;;;;;;6343078;27;20673;-57
2023/07/08 10:34:58;;;;;;;0.60;0.50;;;25.70;63.00;;;;;;6338164;28;20042;-56
2023/07/08 10:38:18;;;;;;;0.85;0.50;;;25.70;62.90;;;;;;6329654;28;20151;-51
2023/07/08 10:41:30;;;;;;;0.50;0.40;;;25.60;62.50;;;;;;6385715;28;20316;-50
2023/07/08 10:44:39;;;;;;;1.05;0.82;;;25.70;62.40;;;;;;6368205;28;20043;-53
2023/07/08 10:47:56;;;;;;;0.93;0.73;;;25.70;62.40;;;;;;6386690;28;20366;-53
2023/07/08 10:51:13;;;;;;;0.45;0.40;;;25.70;62.30;;;;;;6387448;28;20072;-50
2023/07/08 10:54:39;;;;;;;0.77;0.50;;;25.70;62.20;;;;;;6393320;28;20038;-49
2023/07/08 10:57:59;;;;;;;0.60;0.57;;;25.60;62.10;;;;;;6395338;27;20019;-50
2023/07/08 11:01:10;;;;;;;0.50;0.40;;;25.60;62.20;;;;;;6394273;28;20289;-53
2023/07/08 11:04:26;;;;;;;0.50;0.50;;;25.40;61.80;;;;;;6394600;28;20508;-49
2023/07/08 11:07:35;;;;;;;1.10;0.40;;;25.50;61.80;;;;;;6396028;27;20038;-52
2023/07/08 11:10:46;;;;;;;0.70;0.60;;;25.70;62.00;;;;;;6395481;27;20045;-52
2023/07/08 11:13:52;;;;;;;0.70;0.40;;;25.70;61.80;;;;;;6393706;28;20056;-50
2023/07/08 11:16:58;;;;;;;0.70;0.52;;;25.50;61.70;;;;;;6395538;27;20054;-51
2023/07/08 11:20:10;;;;;;;0.52;0.50;;;25.60;61.60;;;;;;6378383;27;20035;-50
2023/07/08 11:23:24;;;;;;;0.45;0.40;;;25.70;61.60;;;;;;6395615;27;20027;-48
2023/07/08 11:26:30;;;;;;;0.65;0.40;;;25.60;61.50;;;;;;6396062;27;20027;-52
2023/07/08 11:29:37;;;;;;;0.50;0.40;;;25.60;61.40;;;;;;6379858;28;20035;-51
2023/07/08 11:32:40;;;;;;;1.13;0.57;;;25.70;61.60;;;;;;6379182;28;20031;-53
2023/07/08 11:35:46;;;;;;;0.60;0.50;;;25.70;61.40;;;;;;6378237;28;20027;-49
2023/07/08 11:38:49;;;;;;;0.40;0.40;;;25.70;61.30;;;;;;6396319;28;20047;-52
2023/07/08 11:41:54;;;;;;;0.85;0.50;;;25.70;61.20;;;;;;6394256;28;20046;-49
2023/07/08 11:44:58;;;;;;;0.68;0.50;;;25.80;61.30;;;;;;6395425;27;20095;-49
2023/07/08 11:48:07;;;;;;;0.70;0.50;;;25.90;61.20;;;;;;6395975;28;20027;-51
2023/07/08 11:51:11;;;;;;;0.93;0.60;;;25.70;61.00;;;;;;6378057;28;20069;-52
2023/07/08 11:54:21;;;;;;;0.73;0.50;;;25.80;61.10;;;;;;6379501;28;20028;-48
2023/07/08 11:57:29;;;;;;;0.60;0.40;;;25.80;61.00;;;;;;6378897;28;20023;-52
2023/07/08 12:00:33;;;;;;;0.80;0.50;;;25.70;60.80;;;;;;6378887;28;20030;-50
2023/07/08 12:03:38;;;;;;;0.50;0.40;;;25.90;60.80;;;;;;6396715;27;20073;-53
2023/07/08 12:06:58;;;;;;;0.70;0.70;;;25.80;60.60;;;;;;6393687;28;20031;-49
2023/07/08 12:10:06;;;;;;;0.77;0.57;;;25.80;60.50;;;;;;6364006;28;20053;-50
2023/07/08 12:13:13;;;;;;;0.80;0.50;;;25.80;60.40;;;;;;6361902;27;20024;-48
2023/07/08 12:16:14;;;;;;;0.75;0.65;;;25.80;60.30;;;;;;6395998;28;20054;-51
2023/07/08 12:19:18;;;;;;;0.75;0.52;;;25.80;60.20;;;;;;6396198;28;20106;-50
2023/07/08 12:22:21;;;;;;;1.27;0.63;;;25.90;60.20;;;;;;6396330;27;20030;-51
2023/07/08 12:25:28;;;;;;;0.50;0.40;;;25.80;60.10;;;;;;6397356;28;20031;-49
2023/07/08 12:28:29;;;;;;;0.70;0.50;;;25.80;60.00;;;;;;6396173;28;20092;-54
2023/07/08 12:31:32;;;;;;;0.60;0.43;;;25.90;60.20;;;;;;6396496;27;20039;-49
2023/07/08 12:34:34;;;;;;;0.57;0.47;;;25.80;60.00;;;;;;6396609;27;20024;-51
2023/07/08 12:37:35;;;;;;;0.60;0.55;;;25.90;60.00;;;;;;6395907;27;20019;-49
2023/07/08 12:40:37;;;;;;;1.30;0.50;;;25.80;59.90;;;;;;6396593;27;20034;-52
2023/07/08 12:43:39;;;;;;;0.50;0.38;;;25.80;59.90;;;;;;6397386;27;20054;-52
2023/07/08 12:46:40;;;;;;;0.60;0.50;;;25.90;60.10;;;;;;6396733;27;20068;-53
2023/07/08 12:49:42;;;;;;;0.77;0.60;;;26.00;60.00;;;;;;6395537;28;20064;-49
2023/07/08 12:52:45;;;;;;;0.50;0.47;;;25.90;60.00;;;;;;6392980;28;20083;-50
2023/07/08 12:55:50;;;;;;;0.70;0.50;;;25.90;59.90;;;;;;6381621;28;20038;-48
2023/07/08 12:58:56;;;;;;;0.43;0.40;;;25.90;59.90;;;;;;6399198;27;20019;-49
2023/07/08 13:01:58;;;;;;;0.82;0.50;;;26.00;60.00;;;;;;6399487;27;20103;-48
2023/07/08 13:05:04;;;;;;;0.57;0.52;;;26.00;59.90;;;;;;6399924;27;20060;-51
2023/07/08 13:08:11;;;;;;;0.50;0.32;;;26.00;59.80;;;;;;6400478;28;20023;-51
2023/07/08 13:11:21;;;;;;;0.93;0.50;;;26.00;59.80;;;;;;6382855;28;20038;-53
2023/07/08 13:14:24;;;;;;;0.47;0.32;;;25.90;59.70;;;;;;6400522;27;20054;-52
2023/07/08 13:17:25;;;;;;;0.40;0.40;;;26.00;59.70;;;;;;6401073;28;20031;-50
2023/07/08 13:20:27;;;;;;;0.20;0.20;;;25.90;60.20;;;;;;6400642;27;20027;-50
2023/07/08 13:23:30;;;;;;;0.40;0.20;;;25.90;59.70;;;;;;6399961;28;20040;-50
2023/07/08 13:26:32;;;;;;;0.40;0.40;;;25.90;59.60;;;;;;6400001;28;20087;-50
2023/07/08 13:29:35;;;;;;;0.50;0.30;;;26.00;59.70;;;;;;6400462;28;20027;-51
2023/07/08 13:32:37;;;;;;;0.25;0.25;;;25.90;59.60;;;;;;6382024;28;20039;-53
2023/07/08 13:35:41;;;;;;;0.30;0.30;;;25.80;59.50;;;;;;6399853;27;20030;-52
2023/07/08 13:38:43;;;;;;;0.73;0.40;;;25.90;59.70;;;;;;6398870;28;20048;-52
2023/07/08 13:41:45;;;;;;;0.30;0.25;;;25.80;59.60;;;;;;6381547;28;20046;-50
2023/07/08 13:44:48;;;;;;;0.35;0.30;;;25.80;59.50;;;;;;6398848;28;20024;-54
2023/07/08 13:47:59;;;;;;;0.25;0.25;;;25.80;59.60;;;;;;6400068;28;20091;-53
2023/07/08 13:51:03;;;;;;;0.50;0.30;;;25.80;59.50;;;;;;6400202;28;20027;-53
2023/07/08 13:54:15;;;;;;;0.32;0.25;;;26.00;59.70;;;;;;6399601;28;20043;-55
2023/07/08 13:57:18;;;;;;;;;;;25.80;59.60;;;;;;6364607;28;20023;-53
2023/07/08 14:00:20;;;;;;;0.50;0.40;;;25.90;59.80;;;;;;6379813;28;19919;-47
2023/07/08 14:03:21;;;;;;;0.60;0.40;;;25.90;59.80;;;;;;6398030;27;20034;-54
2023/07/08 14:06:26;;;;;;;0.52;0.40;;;25.90;59.90;;;;;;6396509;27;20023;-48
2023/07/08 14:09:27;;;;;;;0.50;0.47;;;25.70;59.90;;;;;;6364914;28;20049;-53
2023/07/08 14:12:33;;;;;;;0.60;0.50;;;25.90;60.10;;;;;;6381727;28;20293;-50
2023/07/08 14:15:34;;;;;;;0.40;0.30;;;25.90;60.30;;;;;;6398901;27;20030;-52
2023/07/08 14:18:36;;;;;;;0.32;0.32;;;25.80;60.20;;;;;;6398534;27;20023;-48
2023/07/08 14:21:37;;;;;;;0.50;0.47;;;25.90;60.40;;;;;;6397916;28;20046;-51
2023/07/08 14:24:39;;;;;;;0.57;0.40;;;25.90;60.30;;;;;;6397948;27;20028;-52
2023/07/08 14:27:41;;;;;;;0.30;0.30;;;26.00;60.60;;;;;;6396661;27;20023;-50
2023/07/08 14:30:45;;;;;;;0.47;0.30;;;25.80;60.30;;;;;;6399188;28;20043;-53
2023/07/08 14:33:47;;;;;;;0.57;0.45;;;25.80;60.20;;;;;;6380330;28;20019;-53
2023/07/08 14:36:49;;;;;;;0.50;0.30;;;25.80;60.20;;;;;;6397582;28;20047;-48
2023/07/08 14:39:50;;;;;;;0.40;0.40;;;25.80;60.20;;;;;;6399349;27;20031;-52
2023/07/08 14:43:03;;;;;;;0.50;0.50;;;25.90;60.10;;;;;;6400321;28;20043;-52
2023/07/08 14:46:06;;;;;;;0.38;0.30;;;25.80;60.00;;;;;;6382285;28;20039;-53
2023/07/08 14:49:16;;;;;;;0.40;0.32;;;25.80;60.00;;;;;;6397994;28;20035;-52
2023/07/08 14:52:17;;;;;;;0.77;0.52;;;25.90;59.80;;;;;;6379486;27;20041;-53
2023/07/08 14:55:19;;;;;;;0.40;0.38;;;25.90;59.90;;;;;;6398820;28;20076;-48
2023/07/08 14:58:27;;;;;;;0.52;0.40;;;25.90;59.80;;;;;;6398379;27;20023;-51
2023/07/08 15:01:30;;;;;;;0.50;0.50;;;25.80;59.80;;;;;;6398694;27;20019;-49
2023/07/08 15:04:31;;;;;;;0.40;0.40;;;25.80;59.60;;;;;;6398883;27;20320;-51
2023/07/08 15:07:33;;;;;;;0.50;0.40;;;25.80;59.60;;;;;;6363253;28;20115;-49
2023/07/08 15:10:36;;;;;;;0.50;0.40;;;25.70;59.60;;;;;;6397303;27;20019;-51
2023/07/08 15:13:39;;;;;;;0.50;0.50;;;25.70;59.60;;;;;;6381059;28;20035;-54
2023/07/08 15:16:45;;;;;;;0.85;0.60;;;25.80;59.80;;;;;;6347305;27;20039;-53
2023/07/08 15:19:50;;;;;;;0.50;0.50;;;25.80;59.90;;;;;;6380565;27;20031;-50
2023/07/08 15:22:54;;;;;;;0.55;0.40;;;25.70;59.80;;;;;;6395448;27;20027;-52
2023/07/08 15:25:56;;;;;;;0.32;0.30;;;25.80;59.90;;;;;;6398591;27;20027;-52
2023/07/08 15:28:58;;;;;;;0.75;0.50;;;25.70;59.90;;;;;;6397677;27;20056;-52
2023/07/08 15:31:59;;;;;;;0.32;0.32;;;25.60;59.90;;;;;;6397489;28;20023;-52
2023/07/08 15:35:01;;;;;;;0.68;0.40;;;25.70;59.90;;;;;;6395135;28;20047;-51
2023/07/08 15:38:04;;;;;;;0.57;0.50;;;25.60;59.90;;;;;;6397478;28;20031;-50
2023/07/08 15:41:12;;;;;;;0.38;0.30;;;25.30;59.60;;;;;;6397069;27;20090;-55
2023/07/08 15:44:16;;;;;;;0.50;0.32;;;25.70;59.90;;;;;;6396567;27;20030;-49
2023/07/08 15:47:18;;;;;;;0.55;0.45;;;25.60;59.90;;;;;;6397382;28;20054;-53
2023/07/08 15:50:23;;;;;;;0.43;0.40;;;25.80;59.80;;;;;;6396933;27;20023;-51
2023/07/08 15:53:25;;;;;;;0.40;0.40;;;25.50;59.80;;;;;;6362408;28;20043;-52
2023/07/08 15:56:26;;;;;;;0.75;0.50;;;25.80;60.00;;;;;;6397570;27;20019;-50
2023/07/08 15:59:30;;;;;;;0.50;0.43;;;25.70;60.00;;;;;;6396260;27;20049;-49